createdAt,value
2022-09-12T00:03:34.262Z,12.50
2022-09-12T00:08:36.914Z,12.60
2022-09-12T00:13:41.965Z,12.60
2022-09-12T00:18:46.868Z,12.70
2022-09-12T00:23:50.367Z,12.80
2022-09-12T00:28:53.170Z,12.90
2022-09-12T00:33:58.365Z,13.00
2022-09-12T00:39:01.066Z,13.00
2022-09-12T00:44:23.545Z,12.90
2022-09-12T00:49:34.680Z,12.80
2022-09-12T00:54:59.441Z,12.60
2022-09-12T01:00:12.371Z,12.60
2022-09-12T01:05:15.806Z,12.50
2022-09-12T01:10:19.626Z,12.50
2022-09-12T01:15:22.079Z,12.40
2022-09-12T01:20:43.006Z,12.70
2022-09-12T01:26:12.470Z,12.60
2022-09-12T01:31:45.234Z,12.70
2022-09-12T01:37:09.348Z,12.80
2022-09-12T01:42:31.597Z,12.80
2022-09-12T01:47:56.528Z,12.80
2022-09-12T01:53:12.493Z,12.90
2022-09-12T01:58:22.349Z,12.90
2022-09-12T02:03:31.104Z,12.80
2022-09-12T02:08:51.412Z,12.70
2022-09-12T02:14:02.951Z,12.60
2022-09-12T02:19:16.356Z,12.60
2022-09-12T02:24:21.290Z,12.50
2022-09-12T02:29:23.833Z,12.30
2022-09-12T02:34:44.406Z,12.40
2022-09-12T02:39:47.169Z,12.30
2022-09-12T02:44:51.850Z,12.20
2022-09-12T02:49:55.527Z,12.20
2022-09-12T02:54:58.660Z,12.00
2022-09-12T03:00:02.241Z,12.10
2022-09-12T03:05:24.971Z,12.00
2022-09-12T03:10:39.352Z,11.90
2022-09-12T03:15:41.784Z,11.90
2022-09-12T03:21:00.874Z,11.90
2022-09-12T03:26:13.109Z,11.90
2022-09-12T03:31:20.010Z,11.90
2022-09-12T03:36:26.155Z,11.80
2022-09-12T03:41:28.711Z,11.80
2022-09-12T03:46:31.549Z,11.80
2022-09-12T03:51:33.953Z,11.80
2022-09-12T03:56:37.082Z,11.90
2022-09-12T04:01:40.838Z,11.80
2022-09-12T04:06:46.837Z,11.80
2022-09-12T04:11:49.336Z,11.80
2022-09-12T04:16:51.883Z,11.90
2022-09-12T04:21:54.508Z,11.90
2022-09-12T04:26:57.118Z,12.00
2022-09-12T04:31:59.564Z,12.10
2022-09-12T04:37:02.057Z,12.20
2022-09-12T04:42:04.872Z,12.30
2022-09-12T04:47:07.995Z,12.40
2022-09-12T04:52:10.417Z,12.60
2022-09-12T04:57:13.433Z,12.60
2022-09-12T05:02:16.399Z,12.70
2022-09-12T05:07:21.929Z,12.80
2022-09-12T05:12:24.818Z,12.80
2022-09-12T05:17:29.601Z,12.90
2022-09-12T05:22:31.974Z,13.00
2022-09-12T05:27:34.393Z,12.90
2022-09-12T05:32:36.763Z,12.90
2022-09-12T05:37:40.181Z,13.10
2022-09-12T05:42:42.571Z,13.10
2022-09-12T05:47:47.478Z,13.30
2022-09-12T05:52:50.600Z,13.40
2022-09-12T05:57:54.123Z,13.40
2022-09-12T06:02:56.696Z,13.50
2022-09-12T06:07:59.226Z,13.90
2022-09-12T06:13:01.724Z,13.70
2022-09-12T06:18:04.226Z,13.60
2022-09-12T06:23:07.303Z,13.70
2022-09-12T06:28:09.635Z,13.80
2022-09-12T06:33:12.256Z,13.90
2022-09-12T06:38:14.734Z,14.10
2022-09-12T06:43:17.164Z,14.20
2022-09-12T06:48:20.501Z,14.30
2022-09-12T06:53:22.900Z,14.10
2022-09-12T06:58:26.523Z,14.20
2022-09-12T07:03:29.499Z,14.30
2022-09-12T07:08:32.353Z,14.60
2022-09-12T07:13:34.942Z,14.90
2022-09-12T07:18:38.218Z,15.00
2022-09-12T07:23:42.040Z,15.20
2022-09-12T07:28:44.814Z,15.30
2022-09-12T07:33:50.103Z,15.50
2022-09-12T07:38:57.802Z,15.50
2022-09-12T07:44:01.880Z,15.30
2022-09-12T07:49:04.473Z,15.50
2022-09-12T07:54:10.286Z,15.70
2022-09-12T07:59:12.626Z,15.70
2022-09-12T08:04:15.098Z,16.20
2022-09-12T08:09:17.631Z,16.80
2022-09-12T08:14:20.001Z,17.40
2022-09-12T08:19:22.916Z,17.20
2022-09-12T08:24:25.489Z,17.60
2022-09-12T08:29:27.937Z,17.30
2022-09-12T08:34:30.376Z,17.50
2022-09-12T08:39:33.297Z,17.70
2022-09-12T08:45:15.033Z,17.50
2022-09-12T08:50:20.973Z,17.40
2022-09-12T08:55:33.933Z,17.60
2022-09-12T09:00:48.640Z,17.70
2022-09-12T09:06:09.796Z,17.70
2022-09-12T09:11:25.272Z,18.10
2022-09-12T09:16:31.920Z,17.80
2022-09-12T09:22:00.088Z,18.00
2022-09-12T09:27:29.775Z,18.20
2022-09-12T09:32:38.088Z,18.60
2022-09-12T09:37:58.726Z,18.90
2022-09-12T09:43:31.289Z,19.20
2022-09-12T09:48:41.078Z,19.20
2022-09-12T09:53:47.991Z,19.30
2022-09-12T09:58:50.392Z,19.10
2022-09-12T10:03:56.574Z,19.30
2022-09-12T10:09:20.182Z,19.00
2022-09-12T10:14:28.831Z,18.80
2022-09-12T10:19:40.313Z,18.90
2022-09-12T10:24:49.070Z,18.90
2022-09-12T10:29:56.751Z,19.50
2022-09-12T10:35:02.435Z,20.20
2022-09-12T10:40:09.305Z,20.90
2022-09-12T10:45:25.389Z,20.30
2022-09-12T10:50:36.328Z,19.90
2022-09-12T10:55:41.478Z,19.40
2022-09-12T11:00:51.122Z,19.20
2022-09-12T11:05:57.163Z,18.90
2022-09-12T11:11:09.077Z,19.00
2022-09-12T11:16:41.071Z,19.50
2022-09-12T11:21:57.091Z,19.60
2022-09-12T11:27:05.474Z,19.80
2022-09-12T11:32:23.991Z,19.60
2022-09-12T11:37:54.379Z,19.20
2022-09-12T11:43:03.346Z,19.80
2022-09-12T11:48:12.718Z,20.40
2022-09-12T11:53:24.410Z,20.70
2022-09-12T11:58:29.729Z,20.70
2022-09-12T12:03:41.660Z,20.20
2022-09-12T12:08:46.201Z,20.70
2022-09-12T12:13:54.481Z,21.30
2022-09-12T12:19:03.605Z,21.80
2022-09-12T12:24:07.873Z,21.50
2022-09-12T12:29:16.629Z,21.30
2022-09-12T12:34:32.978Z,20.80
2022-09-12T12:39:38.426Z,20.70
2022-09-12T12:44:50.138Z,20.90
2022-09-12T12:50:05.324Z,20.60
2022-09-12T12:55:17.350Z,21.00
2022-09-12T13:00:29.862Z,21.20
2022-09-12T13:05:48.561Z,21.70
2022-09-12T13:10:58.046Z,21.50
2022-09-12T13:16:00.787Z,21.90
2022-09-12T13:21:17.411Z,21.50
2022-09-12T13:26:25.654Z,20.90
2022-09-12T13:31:31.130Z,20.30
2022-09-12T13:37:11.400Z,19.90
2022-09-12T13:42:48.699Z,20.00
2022-09-12T13:48:00.822Z,20.20
2022-09-12T13:53:06.935Z,20.40
2022-09-12T13:58:28.738Z,20.50
2022-09-12T14:03:56.736Z,20.60
2022-09-12T14:09:01.509Z,20.60
2022-09-12T14:14:06.874Z,20.50
2022-09-12T14:19:12.373Z,20.30
2022-09-12T14:24:15.063Z,20.30
2022-09-12T14:29:17.940Z,20.20
2022-09-12T14:34:20.218Z,20.10
2022-09-12T14:39:38.736Z,19.90
2022-09-12T14:44:44.331Z,19.90
2022-09-12T14:49:48.532Z,19.70
2022-09-12T14:55:19.944Z,19.60
2022-09-12T15:00:23.383Z,19.50
2022-09-12T15:05:27.138Z,19.20
2022-09-12T15:10:35.719Z,19.20
2022-09-12T15:15:39.994Z,19.00
2022-09-12T15:20:44.641Z,19.10
2022-09-12T15:25:47.158Z,19.10
2022-09-12T15:30:52.483Z,19.10
2022-09-12T15:35:54.790Z,19.00
2022-09-12T15:40:57.455Z,18.80
2022-09-12T15:45:59.905Z,18.50
2022-09-12T15:51:04.395Z,18.20
2022-09-12T15:56:07.041Z,17.80
2022-09-12T16:01:15.040Z,17.60
2022-09-12T16:06:17.382Z,17.50
2022-09-12T16:11:25.192Z,17.40
2022-09-12T16:16:28.572Z,17.30
2022-09-12T16:21:31.895Z,17.10
2022-09-12T16:26:34.281Z,17.00
2022-09-12T16:31:38.429Z,16.90
2022-09-12T16:36:40.848Z,16.70
2022-09-12T16:41:43.170Z,16.60
2022-09-12T16:46:46.187Z,16.60
2022-09-12T16:51:48.564Z,16.50
2022-09-12T16:56:52.962Z,16.50
2022-09-12T17:01:55.302Z,16.40
2022-09-12T17:06:59.486Z,16.30
2022-09-12T17:12:02.089Z,16.20
2022-09-12T17:17:04.383Z,16.10
2022-09-12T17:22:06.676Z,16.00
2022-09-12T17:27:09.060Z,15.80
2022-09-12T17:32:15.564Z,15.70
2022-09-12T17:37:21.824Z,15.60
2022-09-12T17:42:24.369Z,15.50
2022-09-12T17:47:26.669Z,15.40
2022-09-12T17:52:30.737Z,15.20
2022-09-12T17:57:33.130Z,15.40
2022-09-12T18:02:39.214Z,15.20
2022-09-12T18:07:44.184Z,15.30
2022-09-12T18:12:47.198Z,15.20
2022-09-12T18:17:49.619Z,15.00
2022-09-12T18:22:51.950Z,15.00
2022-09-12T18:27:54.635Z,14.80
2022-09-12T18:32:57.080Z,14.90
2022-09-12T18:37:59.465Z,14.90
2022-09-12T18:43:01.901Z,14.90
2022-09-12T18:48:06.161Z,14.80
2022-09-12T18:53:08.622Z,14.70
2022-09-12T18:58:11.308Z,14.70
2022-09-12T19:03:13.710Z,14.70
2022-09-12T19:08:16.426Z,14.50
2022-09-12T19:13:18.786Z,14.40
2022-09-12T19:18:21.169Z,14.40
2022-09-12T19:23:23.814Z,14.40
2022-09-12T19:28:27.452Z,14.50
2022-09-12T19:33:29.882Z,14.30
2022-09-12T19:38:32.330Z,14.10
2022-09-12T19:43:34.930Z,14.30
2022-09-12T19:48:37.387Z,14.10
2022-09-12T19:53:40.923Z,14.10
2022-09-12T19:58:45.357Z,14.00
2022-09-12T20:03:49.023Z,14.00
2022-09-12T20:08:51.771Z,13.90
2022-09-12T20:13:54.241Z,14.00
2022-09-12T20:19:07.180Z,13.90
2022-09-12T20:24:15.804Z,13.80
2022-09-12T20:29:18.648Z,13.60
2022-09-12T20:34:21.569Z,13.70
2022-09-12T20:39:24.956Z,13.50
2022-09-12T20:44:27.684Z,13.40
2022-09-12T20:49:33.228Z,13.40
2022-09-12T20:54:35.584Z,13.30
2022-09-12T20:59:42.491Z,13.30
2022-09-12T21:04:44.913Z,13.30
2022-09-12T21:09:47.646Z,13.20
2022-09-12T21:14:50.064Z,13.20
2022-09-12T21:19:52.411Z,13.00
2022-09-12T21:24:55.172Z,13.00
2022-09-12T21:29:57.912Z,12.90
2022-09-12T21:35:00.829Z,12.80
2022-09-12T21:40:03.644Z,12.70
2022-09-12T21:45:06.562Z,12.70
2022-09-12T21:50:09.610Z,12.70
2022-09-12T21:55:12.599Z,12.60
2022-09-12T22:00:16.384Z,12.60
2022-09-12T22:05:20.396Z,12.50
2022-09-12T22:10:23.026Z,12.50
2022-09-12T22:15:41.490Z,12.50
2022-09-12T22:20:44.003Z,12.50
2022-09-12T22:25:46.685Z,12.40
2022-09-12T22:30:49.083Z,12.30
2022-09-12T22:35:51.896Z,12.30
2022-09-12T22:40:54.486Z,12.30
2022-09-12T22:45:56.883Z,12.30
2022-09-12T22:50:59.318Z,12.30
2022-09-12T22:56:02.119Z,12.20
2022-09-12T23:01:08.408Z,12.00
2022-09-12T23:06:11.803Z,12.00
2022-09-12T23:11:17.484Z,12.00
2022-09-12T23:16:22.310Z,12.00
2022-09-12T23:21:29.955Z,12.00
2022-09-12T23:26:32.515Z,12.00
2022-09-12T23:31:35.052Z,12.00
2022-09-12T23:36:37.531Z,11.80
2022-09-12T23:41:40.551Z,11.70
2022-09-12T23:46:42.826Z,11.70
2022-09-12T23:51:45.193Z,11.70
2022-09-12T23:56:47.939Z,11.50
